sensor_id;sensor_type;location;lat;lon;timestamp;temperature;humidity
820;DHT22;392;48.838;2.322;2024-03-25T00:02:08;9.30;27.80
820;DHT22;392;48.838;2.322;2024-03-25T00:04:36;9.30;27.90
820;DHT22;392;48.838;2.322;2024-03-25T00:07:02;9.30;28.00
820;DHT22;392;48.838;2.322;2024-03-25T00:09:30;9.30;28.20
820;DHT22;392;48.838;2.322;2024-03-25T00:11:56;9.30;28.20
820;DHT22;392;48.838;2.322;2024-03-25T00:14:25;9.30;28.30
820;DHT22;392;48.838;2.322;2024-03-25T00:16:51;9.30;28.40
820;DHT22;392;48.838;2.322;2024-03-25T00:19:18;9.30;28.30
820;DHT22;392;48.838;2.322;2024-03-25T00:21:44;9.30;28.40
820;DHT22;392;48.838;2.322;2024-03-25T00:24:11;9.30;28.40
820;DHT22;392;48.838;2.322;2024-03-25T00:26:38;9.30;28.40
820;DHT22;392;48.838;2.322;2024-03-25T00:29:05;9.40;28.40
820;DHT22;392;48.838;2.322;2024-03-25T00:31:32;9.40;28.50
820;DHT22;392;48.838;2.322;2024-03-25T00:33:59;9.40;28.50
820;DHT22;392;48.838;2.322;2024-03-25T00:36:26;9.40;28.50
820;DHT22;392;48.838;2.322;2024-03-25T00:38:53;9.40;28.30
820;DHT22;392;48.838;2.322;2024-03-25T00:41:21;9.30;27.50
820;DHT22;392;48.838;2.322;2024-03-25T00:43:48;9.30;27.90
820;DHT22;392;48.838;2.322;2024-03-25T00:46:15;9.30;28.10
820;DHT22;392;48.838;2.322;2024-03-25T00:48:44;9.20;28.20
820;DHT22;392;48.838;2.322;2024-03-25T00:51:10;9.10;28.50
820;DHT22;392;48.838;2.322;2024-03-25T00:53:37;9.10;28.70
820;DHT22;392;48.838;2.322;2024-03-25T00:56:03;9.00;28.90
820;DHT22;392;48.838;2.322;2024-03-25T00:58:31;9.00;29.30
820;DHT22;392;48.838;2.322;2024-03-25T01:00:57;9.00;29.30
820;DHT22;392;48.838;2.322;2024-03-25T01:03:24;9.00;29.30
820;DHT22;392;48.838;2.322;2024-03-25T01:05:51;9.00;29.30
820;DHT22;392;48.838;2.322;2024-03-25T01:08:19;9.00;29.30
820;DHT22;392;48.838;2.322;2024-03-25T01:10:45;9.00;29.30
820;DHT22;392;48.838;2.322;2024-03-25T01:13:12;9.00;29.30
820;DHT22;392;48.838;2.322;2024-03-25T01:15:39;9.00;29.30
820;DHT22;392;48.838;2.322;2024-03-25T01:18:06;9.00;29.30
820;DHT22;392;48.838;2.322;2024-03-25T01:20:32;8.90;29.20
820;DHT22;392;48.838;2.322;2024-03-25T01:23:01;8.90;29.20
820;DHT22;392;48.838;2.322;2024-03-25T01:25:27;8.90;29.20
820;DHT22;392;48.838;2.322;2024-03-25T01:27:54;8.90;29.20
820;DHT22;392;48.838;2.322;2024-03-25T01:30:20;8.90;29.20
820;DHT22;392;48.838;2.322;2024-03-25T01:32:47;8.90;29.20
820;DHT22;392;48.838;2.322;2024-03-25T01:35:14;8.80;29.10
820;DHT22;392;48.838;2.322;2024-03-25T01:37:42;8.90;29.20
820;DHT22;392;48.838;2.322;2024-03-25T01:40:10;8.80;29.20
820;DHT22;392;48.838;2.322;2024-03-25T01:42:37;8.80;29.20
820;DHT22;392;48.838;2.322;2024-03-25T01:45:04;8.80;29.40
820;DHT22;392;48.838;2.322;2024-03-25T01:47:33;8.80;29.60
820;DHT22;392;48.838;2.322;2024-03-25T01:50:01;8.70;29.70
820;DHT22;392;48.838;2.322;2024-03-25T01:52:30;8.70;29.90
820;DHT22;392;48.838;2.322;2024-03-25T01:54:57;8.70;30.60
820;DHT22;392;48.838;2.322;2024-03-25T01:57:26;8.70;30.20
820;DHT22;392;48.838;2.322;2024-03-25T01:59:52;8.70;30.30
820;DHT22;392;48.838;2.322;2024-03-25T02:02:22;8.70;30.20
820;DHT22;392;48.838;2.322;2024-03-25T02:04:48;8.70;29.80
820;DHT22;392;48.838;2.322;2024-03-25T02:07:16;8.70;30.20
820;DHT22;392;48.838;2.322;2024-03-25T02:09:43;8.70;30.20
820;DHT22;392;48.838;2.322;2024-03-25T02:12:11;8.70;30.30
820;DHT22;392;48.838;2.322;2024-03-25T02:14:39;8.70;30.50
820;DHT22;392;48.838;2.322;2024-03-25T02:17:07;8.60;30.00
820;DHT22;392;48.838;2.322;2024-03-25T02:19:33;8.60;30.80
820;DHT22;392;48.838;2.322;2024-03-25T02:22:02;8.60;30.90
820;DHT22;392;48.838;2.322;2024-03-25T02:24:29;8.60;31.00
820;DHT22;392;48.838;2.322;2024-03-25T02:26:58;8.60;31.10
820;DHT22;392;48.838;2.322;2024-03-25T02:29:33;8.60;31.30
820;DHT22;392;48.838;2.322;2024-03-25T02:32:00;8.60;31.50
820;DHT22;392;48.838;2.322;2024-03-25T02:34:26;8.60;31.70
820;DHT22;392;48.838;2.322;2024-03-25T02:36:54;8.50;31.80
820;DHT22;392;48.838;2.322;2024-03-25T02:39:20;8.50;31.70
820;DHT22;392;48.838;2.322;2024-03-25T02:41:47;8.50;31.70
820;DHT22;392;48.838;2.322;2024-03-25T02:44:15;8.50;31.60
820;DHT22;392;48.838;2.322;2024-03-25T02:46:43;8.50;31.70
820;DHT22;392;48.838;2.322;2024-03-25T02:49:10;8.50;31.70
820;DHT22;392;48.838;2.322;2024-03-25T02:51:37;8.50;31.80
820;DHT22;392;48.838;2.322;2024-03-25T02:54:03;8.50;32.10
820;DHT22;392;48.838;2.322;2024-03-25T02:56:31;8.50;32.00
820;DHT22;392;48.838;2.322;2024-03-25T02:58:57;8.50;31.90
820;DHT22;392;48.838;2.322;2024-03-25T03:01:26;8.50;31.90
820;DHT22;392;48.838;2.322;2024-03-25T03:03:52;8.40;32.10
820;DHT22;392;48.838;2.322;2024-03-25T03:06:19;8.40;32.20
820;DHT22;392;48.838;2.322;2024-03-25T03:08:45;8.40;31.70
820;DHT22;392;48.838;2.322;2024-03-25T03:11:12;8.40;32.20
820;DHT22;392;48.838;2.322;2024-03-25T03:13:39;8.30;32.30
820;DHT22;392;48.838;2.322;2024-03-25T03:16:06;8.30;32.60
820;DHT22;392;48.838;2.322;2024-03-25T03:18:34;8.30;32.90
820;DHT22;392;48.838;2.322;2024-03-25T03:21:02;8.30;33.20
820;DHT22;392;48.838;2.322;2024-03-25T03:23:28;8.20;33.40
820;DHT22;392;48.838;2.322;2024-03-25T03:25:56;8.20;33.40
820;DHT22;392;48.838;2.322;2024-03-25T03:28:25;8.20;33.40
820;DHT22;392;48.838;2.322;2024-03-25T03:30:54;8.20;33.90
820;DHT22;392;48.838;2.322;2024-03-25T03:33:20;8.20;34.20
820;DHT22;392;48.838;2.322;2024-03-25T03:35:49;8.20;34.30
820;DHT22;392;48.838;2.322;2024-03-25T03:38:15;8.20;34.30
820;DHT22;392;48.838;2.322;2024-03-25T03:40:44;8.20;34.50
820;DHT22;392;48.838;2.322;2024-03-25T03:43:10;8.20;34.30
820;DHT22;392;48.838;2.322;2024-03-25T03:45:37;8.20;34.20
820;DHT22;392;48.838;2.322;2024-03-25T03:48:04;8.30;34.20
820;DHT22;392;48.838;2.322;2024-03-25T03:50:31;8.30;34.00
820;DHT22;392;48.838;2.322;2024-03-25T03:52:59;8.20;33.90
820;DHT22;392;48.838;2.322;2024-03-25T03:55:26;8.20;34.00
820;DHT22;392;48.838;2.322;2024-03-25T03:57:53;8.20;34.00
820;DHT22;392;48.838;2.322;2024-03-25T04:00:20;8.10;33.90
820;DHT22;392;48.838;2.322;2024-03-25T04:02:46;8.10;33.80
820;DHT22;392;48.838;2.322;2024-03-25T04:05:14;8.10;33.90
820;DHT22;392;48.838;2.322;2024-03-25T04:07:40;8.10;34.10
820;DHT22;392;48.838;2.322;2024-03-25T04:10:09;8.00;34.20
820;DHT22;392;48.838;2.322;2024-03-25T04:12:36;8.00;34.50
820;DHT22;392;48.838;2.322;2024-03-25T04:15:05;8.00;34.70
820;DHT22;392;48.838;2.322;2024-03-25T04:17:32;7.90;34.90
820;DHT22;392;48.838;2.322;2024-03-25T04:20:00;7.90;35.20
820;DHT22;392;48.838;2.322;2024-03-25T04:22:26;7.90;35.30
820;DHT22;392;48.838;2.322;2024-03-25T04:24:53;7.90;35.50
820;DHT22;392;48.838;2.322;2024-03-25T04:27:21;7.90;35.60
820;DHT22;392;48.838;2.322;2024-03-25T04:29:50;7.90;35.80
820;DHT22;392;48.838;2.322;2024-03-25T04:32:16;7.90;36.00
820;DHT22;392;48.838;2.322;2024-03-25T04:34:43;8.00;36.00
820;DHT22;392;48.838;2.322;2024-03-25T04:37:10;7.90;36.00
820;DHT22;392;48.838;2.322;2024-03-25T04:39:36;8.00;36.10
820;DHT22;392;48.838;2.322;2024-03-25T04:42:04;8.00;36.10
820;DHT22;392;48.838;2.322;2024-03-25T04:44:32;7.90;36.10
820;DHT22;392;48.838;2.322;2024-03-25T04:46:58;7.90;36.10
820;DHT22;392;48.838;2.322;2024-03-25T04:49:24;7.90;36.10
820;DHT22;392;48.838;2.322;2024-03-25T04:51:51;7.80;36.00
820;DHT22;392;48.838;2.322;2024-03-25T04:54:17;7.80;36.10
820;DHT22;392;48.838;2.322;2024-03-25T04:56:43;7.80;36.20
820;DHT22;392;48.838;2.322;2024-03-25T04:59:10;7.80;36.20
820;DHT22;392;48.838;2.322;2024-03-25T05:01:38;7.80;36.40
820;DHT22;392;48.838;2.322;2024-03-25T05:04:04;7.80;36.50
820;DHT22;392;48.838;2.322;2024-03-25T05:06:30;7.80;36.50
820;DHT22;392;48.838;2.322;2024-03-25T05:08:57;7.80;36.60
820;DHT22;392;48.838;2.322;2024-03-25T05:11:23;7.80;36.60
820;DHT22;392;48.838;2.322;2024-03-25T05:13:49;7.80;36.60
820;DHT22;392;48.838;2.322;2024-03-25T05:16:16;7.80;36.70
820;DHT22;392;48.838;2.322;2024-03-25T05:18:44;7.80;36.60
820;DHT22;392;48.838;2.322;2024-03-25T05:21:10;7.80;36.50
820;DHT22;392;48.838;2.322;2024-03-25T05:23:36;7.70;36.50
820;DHT22;392;48.838;2.322;2024-03-25T05:26:03;7.70;36.60
820;DHT22;392;48.838;2.322;2024-03-25T05:28:30;7.70;36.50
820;DHT22;392;48.838;2.322;2024-03-25T05:30:56;7.70;37.10
820;DHT22;392;48.838;2.322;2024-03-25T05:33:23;7.70;36.30
820;DHT22;392;48.838;2.322;2024-03-25T05:35:50;7.70;36.10
820;DHT22;392;48.838;2.322;2024-03-25T05:38:17;7.70;36.10
820;DHT22;392;48.838;2.322;2024-03-25T05:40:45;7.70;36.10
820;DHT22;392;48.838;2.322;2024-03-25T05:43:11;7.60;36.20
820;DHT22;392;48.838;2.322;2024-03-25T05:45:38;7.60;36.20
820;DHT22;392;48.838;2.322;2024-03-25T05:48:05;7.60;36.30
820;DHT22;392;48.838;2.322;2024-03-25T05:50:32;7.60;36.20
820;DHT22;392;48.838;2.322;2024-03-25T05:53:00;7.60;36.20
820;DHT22;392;48.838;2.322;2024-03-25T05:55:26;7.60;36.30
820;DHT22;392;48.838;2.322;2024-03-25T05:57:53;7.60;36.60
820;DHT22;392;48.838;2.322;2024-03-25T06:00:19;7.60;36.80
820;DHT22;392;48.838;2.322;2024-03-25T06:02:46;7.60;37.10
820;DHT22;392;48.838;2.322;2024-03-25T06:05:12;7.60;36.80
820;DHT22;392;48.838;2.322;2024-03-25T06:07:39;7.60;36.50
820;DHT22;392;48.838;2.322;2024-03-25T06:10:07;7.70;36.50
820;DHT22;392;48.838;2.322;2024-03-25T06:12:34;7.70;36.40
820;DHT22;392;48.838;2.322;2024-03-25T06:15:01;7.70;36.40
820;DHT22;392;48.838;2.322;2024-03-25T06:17:28;7.70;36.40
820;DHT22;392;48.838;2.322;2024-03-25T06:19:54;7.70;36.70
820;DHT22;392;48.838;2.322;2024-03-25T06:22:20;7.80;37.40
820;DHT22;392;48.838;2.322;2024-03-25T06:24:47;7.80;37.20
820;DHT22;392;48.838;2.322;2024-03-25T06:27:15;7.90;37.00
820;DHT22;392;48.838;2.322;2024-03-25T06:29:42;8.00;36.80
820;DHT22;392;48.838;2.322;2024-03-25T06:32:09;8.10;36.70
820;DHT22;392;48.838;2.322;2024-03-25T06:35:02;8.10;36.50
820;DHT22;392;48.838;2.322;2024-03-25T06:37:29;8.20;36.30
820;DHT22;392;48.838;2.322;2024-03-25T06:39:55;8.30;36.10
820;DHT22;392;48.838;2.322;2024-03-25T06:42:23;8.30;35.90
820;DHT22;392;48.838;2.322;2024-03-25T06:44:50;8.40;35.50
820;DHT22;392;48.838;2.322;2024-03-25T06:47:16;8.50;35.10
820;DHT22;392;48.838;2.322;2024-03-25T06:49:42;8.50;34.80
820;DHT22;392;48.838;2.322;2024-03-25T06:52:09;8.50;34.40
820;DHT22;392;48.838;2.322;2024-03-25T06:54:35;8.60;33.70
820;DHT22;392;48.838;2.322;2024-03-25T06:57:01;8.50;33.40
820;DHT22;392;48.838;2.322;2024-03-25T06:59:30;8.40;33.60
820;DHT22;392;48.838;2.322;2024-03-25T07:01:56;8.30;34.30
820;DHT22;392;48.838;2.322;2024-03-25T07:04:22;8.30;35.70
820;DHT22;392;48.838;2.322;2024-03-25T07:06:49;8.30;35.60
820;DHT22;392;48.838;2.322;2024-03-25T07:09:16;8.30;36.00
820;DHT22;392;48.838;2.322;2024-03-25T07:11:42;8.30;36.50
820;DHT22;392;48.838;2.322;2024-03-25T07:14:09;8.30;37.10
820;DHT22;392;48.838;2.322;2024-03-25T07:16:37;8.40;37.40
820;DHT22;392;48.838;2.322;2024-03-25T07:19:03;8.40;37.70
820;DHT22;392;48.838;2.322;2024-03-25T07:21:29;8.50;37.80
820;DHT22;392;48.838;2.322;2024-03-25T07:23:56;8.60;37.40
820;DHT22;392;48.838;2.322;2024-03-25T07:26:22;8.60;37.30
820;DHT22;392;48.838;2.322;2024-03-25T07:28:48;8.70;36.90
820;DHT22;392;48.838;2.322;2024-03-25T07:31:15;8.80;36.60
820;DHT22;392;48.838;2.322;2024-03-25T07:33:42;8.80;36.60
820;DHT22;392;48.838;2.322;2024-03-25T07:36:09;8.80;37.60
820;DHT22;392;48.838;2.322;2024-03-25T07:38:35;8.90;36.90
820;DHT22;392;48.838;2.322;2024-03-25T07:41:03;9.00;37.00
820;DHT22;392;48.838;2.322;2024-03-25T07:43:30;9.10;37.10
820;DHT22;392;48.838;2.322;2024-03-25T07:45:56;9.20;37.00
820;DHT22;392;48.838;2.322;2024-03-25T07:48:23;9.30;36.00
820;DHT22;392;48.838;2.322;2024-03-25T07:50:51;9.30;35.30
820;DHT22;392;48.838;2.322;2024-03-25T07:53:17;9.30;34.30
820;DHT22;392;48.838;2.322;2024-03-25T07:55:43;9.30;34.90
820;DHT22;392;48.838;2.322;2024-03-25T07:58:10;9.30;34.80
820;DHT22;392;48.838;2.322;2024-03-25T08:00:36;9.30;34.60
820;DHT22;392;48.838;2.322;2024-03-25T08:03:03;9.40;34.40
820;DHT22;392;48.838;2.322;2024-03-25T08:05:30;9.40;34.00
820;DHT22;392;48.838;2.322;2024-03-25T08:07:58;9.40;33.20
820;DHT22;392;48.838;2.322;2024-03-25T08:10:25;9.30;33.30
820;DHT22;392;48.838;2.322;2024-03-25T08:12:51;9.30;34.10
820;DHT22;392;48.838;2.322;2024-03-25T08:15:17;9.30;33.90
820;DHT22;392;48.838;2.322;2024-03-25T08:17:44;9.40;33.70
820;DHT22;392;48.838;2.322;2024-03-25T08:20:11;9.50;34.00
820;DHT22;392;48.838;2.322;2024-03-25T08:22:38;9.60;34.00
820;DHT22;392;48.838;2.322;2024-03-25T08:25:07;9.70;33.70
820;DHT22;392;48.838;2.322;2024-03-25T08:27:33;9.80;33.30
820;DHT22;392;48.838;2.322;2024-03-25T08:30:00;10.00;30.80
820;DHT22;392;48.838;2.322;2024-03-25T08:32:26;10.00;29.50
820;DHT22;392;48.838;2.322;2024-03-25T08:34:52;10.10;29.60
820;DHT22;392;48.838;2.322;2024-03-25T08:37:19;10.10;29.20
820;DHT22;392;48.838;2.322;2024-03-25T08:39:45;10.20;29.30
820;DHT22;392;48.838;2.322;2024-03-25T08:42:14;10.30;29.40
820;DHT22;392;48.838;2.322;2024-03-25T08:44:41;10.30;29.10
820;DHT22;392;48.838;2.322;2024-03-25T08:47:08;10.30;29.40
820;DHT22;392;48.838;2.322;2024-03-25T08:49:34;10.40;29.40
820;DHT22;392;48.838;2.322;2024-03-25T08:52:00;10.50;29.20
820;DHT22;392;48.838;2.322;2024-03-25T08:54:27;10.60;29.60
820;DHT22;392;48.838;2.322;2024-03-25T08:56:53;10.80;29.70
820;DHT22;392;48.838;2.322;2024-03-25T08:59:21;11.00;29.10
820;DHT22;392;48.838;2.322;2024-03-25T09:01:48;11.10;28.40
820;DHT22;392;48.838;2.322;2024-03-25T09:04:14;11.20;28.20
820;DHT22;392;48.838;2.322;2024-03-25T09:06:41;11.40;28.30
820;DHT22;392;48.838;2.322;2024-03-25T09:09:07;11.60;28.30
820;DHT22;392;48.838;2.322;2024-03-25T09:11:52;12.30;28.40
820;DHT22;392;48.838;2.322;2024-03-25T09:14:18;13.80;25.10
820;DHT22;392;48.838;2.322;2024-03-25T09:16:46;15.20;21.60
820;DHT22;392;48.838;2.322;2024-03-25T09:19:12;16.20;18.40
820;DHT22;392;48.838;2.322;2024-03-25T09:21:39;16.70;17.30
820;DHT22;392;48.838;2.322;2024-03-25T09:24:06;17.20;16.30
820;DHT22;392;48.838;2.322;2024-03-25T09:26:32;18.10;14.90
820;DHT22;392;48.838;2.322;2024-03-25T09:28:59;18.30;12.80
820;DHT22;392;48.838;2.322;2024-03-25T09:31:25;17.70;12.80
820;DHT22;392;48.838;2.322;2024-03-25T09:33:54;17.00;13.20
820;DHT22;392;48.838;2.322;2024-03-25T09:36:20;16.30;14.00
820;DHT22;392;48.838;2.322;2024-03-25T09:38:48;15.30;15.60
820;DHT22;392;48.838;2.322;2024-03-25T09:41:14;15.20;16.10
820;DHT22;392;48.838;2.322;2024-03-25T09:43:44;15.00;16.80
820;DHT22;392;48.838;2.322;2024-03-25T09:46:11;14.90;17.20
820;DHT22;392;48.838;2.322;2024-03-25T09:48:38;14.80;17.30
820;DHT22;392;48.838;2.322;2024-03-25T09:51:06;14.70;17.40
820;DHT22;392;48.838;2.322;2024-03-25T09:53:33;14.70;17.00
820;DHT22;392;48.838;2.322;2024-03-25T09:56:00;14.80;17.60
820;DHT22;392;48.838;2.322;2024-03-25T09:58:27;14.90;16.60
820;DHT22;392;48.838;2.322;2024-03-25T10:00:55;15.10;16.40
820;DHT22;392;48.838;2.322;2024-03-25T10:03:21;15.20;16.00
820;DHT22;392;48.838;2.322;2024-03-25T10:05:48;15.20;15.90
820;DHT22;392;48.838;2.322;2024-03-25T10:08:20;15.20;16.50
820;DHT22;392;48.838;2.322;2024-03-25T10:10:46;15.30;16.00
820;DHT22;392;48.838;2.322;2024-03-25T10:13:13;15.30;16.20
820;DHT22;392;48.838;2.322;2024-03-25T10:15:39;15.30;16.20
820;DHT22;392;48.838;2.322;2024-03-25T10:18:06;15.70;15.80
820;DHT22;392;48.838;2.322;2024-03-25T10:20:32;16.00;15.30
820;DHT22;392;48.838;2.322;2024-03-25T10:22:59;16.50;14.80
820;DHT22;392;48.838;2.322;2024-03-25T10:25:28;17.40;13.80
820;DHT22;392;48.838;2.322;2024-03-25T10:27:56;18.70;12.30
820;DHT22;392;48.838;2.322;2024-03-25T10:30:23;20.40;9.70
820;DHT22;392;48.838;2.322;2024-03-25T10:32:59;21.20;7.00
820;DHT22;392;48.838;2.322;2024-03-25T10:35:27;21.70;5.30
820;DHT22;392;48.838;2.322;2024-03-25T10:37:59;21.60;4.70
820;DHT22;392;48.838;2.322;2024-03-25T10:40:29;20.60;4.80
820;DHT22;392;48.838;2.322;2024-03-25T10:43:01;19.80;6.40
820;DHT22;392;48.838;2.322;2024-03-25T10:45:30;19.90;7.00
820;DHT22;392;48.838;2.322;2024-03-25T10:48:02;20.80;6.20
820;DHT22;392;48.838;2.322;2024-03-25T10:50:31;22.10;4.70
820;DHT22;392;48.838;2.322;2024-03-25T10:52:59;24.80;1.00
820;DHT22;392;48.838;2.322;2024-03-25T10:55:27;24.90;1.00
820;DHT22;392;48.838;2.322;2024-03-25T10:57:55;26.10;1.00
820;DHT22;392;48.838;2.322;2024-03-25T11:00:22;26.80;1.00
820;DHT22;392;48.838;2.322;2024-03-25T11:02:49;27.30;1.00
820;DHT22;392;48.838;2.322;2024-03-25T11:05:18;27.80;1.00
820;DHT22;392;48.838;2.322;2024-03-25T11:07:45;28.80;1.00
820;DHT22;392;48.838;2.322;2024-03-25T11:10:12;29.50;1.00
820;DHT22;392;48.838;2.322;2024-03-25T11:12:41;28.90;1.00
820;DHT22;392;48.838;2.322;2024-03-25T11:15:08;28.50;1.00
820;DHT22;392;48.838;2.322;2024-03-25T11:17:36;28.40;1.00
820;DHT22;392;48.838;2.322;2024-03-25T11:20:07;27.60;1.00
820;DHT22;392;48.838;2.322;2024-03-25T11:22:36;28.00;1.00
820;DHT22;392;48.838;2.322;2024-03-25T11:25:14;27.60;1.00
820;DHT22;392;48.838;2.322;2024-03-25T11:27:43;27.10;1.00
820;DHT22;392;48.838;2.322;2024-03-25T11:30:10;26.70;1.00
820;DHT22;392;48.838;2.322;2024-03-25T11:32:44;26.50;1.00
820;DHT22;392;48.838;2.322;2024-03-25T11:35:11;26.50;1.00
820;DHT22;392;48.838;2.322;2024-03-25T11:37:41;27.10;1.00
820;DHT22;392;48.838;2.322;2024-03-25T11:40:09;28.00;1.00
820;DHT22;392;48.838;2.322;2024-03-25T11:42:38;29.30;1.00
820;DHT22;392;48.838;2.322;2024-03-25T11:45:07;29.90;1.00
820;DHT22;392;48.838;2.322;2024-03-25T11:47:36;30.20;1.00
820;DHT22;392;48.838;2.322;2024-03-25T11:50:07;30.70;1.00
820;DHT22;392;48.838;2.322;2024-03-25T11:52:35;31.60;1.00
820;DHT22;392;48.838;2.322;2024-03-25T11:55:01;31.80;1.00
820;DHT22;392;48.838;2.322;2024-03-25T11:57:29;32.00;1.00
820;DHT22;392;48.838;2.322;2024-03-25T11:59:57;31.60;1.00
820;DHT22;392;48.838;2.322;2024-03-25T12:02:26;30.90;1.00
820;DHT22;392;48.838;2.322;2024-03-25T12:04:53;31.00;1.00
820;DHT22;392;48.838;2.322;2024-03-25T12:07:19;30.90;1.00
820;DHT22;392;48.838;2.322;2024-03-25T12:09:45;30.50;1.00
820;DHT22;392;48.838;2.322;2024-03-25T12:12:32;30.70;1.00
820;DHT22;392;48.838;2.322;2024-03-25T12:14:59;31.10;1.00
820;DHT22;392;48.838;2.322;2024-03-25T12:17:29;31.70;1.00
820;DHT22;392;48.838;2.322;2024-03-25T12:19:59;32.00;1.00
820;DHT22;392;48.838;2.322;2024-03-25T12:22:27;31.50;1.00
820;DHT22;392;48.838;2.322;2024-03-25T12:24:57;31.00;1.00
820;DHT22;392;48.838;2.322;2024-03-25T12:27:24;30.00;1.00
820;DHT22;392;48.838;2.322;2024-03-25T12:29:59;29.80;1.00
820;DHT22;392;48.838;2.322;2024-03-25T12:32:35;30.40;1.00
820;DHT22;392;48.838;2.322;2024-03-25T12:35:03;30.00;1.00
820;DHT22;392;48.838;2.322;2024-03-25T12:37:33;29.90;1.00
820;DHT22;392;48.838;2.322;2024-03-25T12:40:00;29.90;1.00
820;DHT22;392;48.838;2.322;2024-03-25T12:42:26;29.90;1.00
820;DHT22;392;48.838;2.322;2024-03-25T12:44:53;29.40;1.00
820;DHT22;392;48.838;2.322;2024-03-25T12:47:20;29.10;1.00
820;DHT22;392;48.838;2.322;2024-03-25T12:49:47;29.70;1.00
820;DHT22;392;48.838;2.322;2024-03-25T12:52:14;29.90;1.00
820;DHT22;392;48.838;2.322;2024-03-25T12:54:41;30.00;1.00
820;DHT22;392;48.838;2.322;2024-03-25T12:57:07;29.80;1.00
820;DHT22;392;48.838;2.322;2024-03-25T12:59:34;29.70;1.00
820;DHT22;392;48.838;2.322;2024-03-25T13:02:00;29.60;1.00
820;DHT22;392;48.838;2.322;2024-03-25T13:04:27;29.50;1.00
820;DHT22;392;48.838;2.322;2024-03-25T13:06:55;29.70;1.00
820;DHT22;392;48.838;2.322;2024-03-25T13:09:21;29.50;1.00
820;DHT22;392;48.838;2.322;2024-03-25T13:11:48;28.90;1.00
820;DHT22;392;48.838;2.322;2024-03-25T13:14:14;28.60;1.00
820;DHT22;392;48.838;2.322;2024-03-25T13:16:40;28.30;1.00
820;DHT22;392;48.838;2.322;2024-03-25T13:19:07;28.60;1.00
820;DHT22;392;48.838;2.322;2024-03-25T13:21:34;29.30;1.00
820;DHT22;392;48.838;2.322;2024-03-25T13:24:02;29.60;1.00
820;DHT22;392;48.838;2.322;2024-03-25T13:26:29;29.30;1.00
820;DHT22;392;48.838;2.322;2024-03-25T13:28:55;28.00;1.00
820;DHT22;392;48.838;2.322;2024-03-25T13:31:21;27.00;1.00
820;DHT22;392;48.838;2.322;2024-03-25T13:33:49;26.40;1.00
820;DHT22;392;48.838;2.322;2024-03-25T13:36:16;25.90;1.00
820;DHT22;392;48.838;2.322;2024-03-25T13:38:42;25.50;1.00
820;DHT22;392;48.838;2.322;2024-03-25T13:41:10;23.80;1.00
820;DHT22;392;48.838;2.322;2024-03-25T13:43:42;23.70;1.00
820;DHT22;392;48.838;2.322;2024-03-25T13:46:08;23.10;1.00
820;DHT22;392;48.838;2.322;2024-03-25T13:48:35;22.40;1.00
820;DHT22;392;48.838;2.322;2024-03-25T13:51:01;22.10;1.00
820;DHT22;392;48.838;2.322;2024-03-25T13:53:28;21.80;1.00
820;DHT22;392;48.838;2.322;2024-03-25T13:55:54;21.50;1.00
820;DHT22;392;48.838;2.322;2024-03-25T13:58:22;21.20;1.00
820;DHT22;392;48.838;2.322;2024-03-25T14:00:49;20.70;1.00
820;DHT22;392;48.838;2.322;2024-03-25T14:03:15;20.50;1.00
820;DHT22;392;48.838;2.322;2024-03-25T14:05:41;20.30;1.00
820;DHT22;392;48.838;2.322;2024-03-25T14:08:09;19.90;1.00
820;DHT22;392;48.838;2.322;2024-03-25T14:10:35;19.50;1.00
820;DHT22;392;48.838;2.322;2024-03-25T14:13:02;19.00;1.00
820;DHT22;392;48.838;2.322;2024-03-25T14:15:32;18.70;1.00
820;DHT22;392;48.838;2.322;2024-03-25T14:17:58;18.40;1.00
820;DHT22;392;48.838;2.322;2024-03-25T14:20:25;18.30;1.00
820;DHT22;392;48.838;2.322;2024-03-25T14:22:51;18.20;1.00
820;DHT22;392;48.838;2.322;2024-03-25T14:25:18;18.00;1.00
820;DHT22;392;48.838;2.322;2024-03-25T14:27:44;17.70;1.00
820;DHT22;392;48.838;2.322;2024-03-25T14:30:12;17.50;1.00
820;DHT22;392;48.838;2.322;2024-03-25T14:32:40;17.30;1.00
820;DHT22;392;48.838;2.322;2024-03-25T14:35:07;17.10;1.00
820;DHT22;392;48.838;2.322;2024-03-25T14:37:33;17.00;1.00
820;DHT22;392;48.838;2.322;2024-03-25T14:40:00;16.80;1.00
820;DHT22;392;48.838;2.322;2024-03-25T14:42:26;16.60;1.00
820;DHT22;392;48.838;2.322;2024-03-25T14:44:53;16.40;1.00
820;DHT22;392;48.838;2.322;2024-03-25T14:47:19;16.40;1.10
820;DHT22;392;48.838;2.322;2024-03-25T14:49:47;16.30;1.80
820;DHT22;392;48.838;2.322;2024-03-25T14:52:13;16.30;1.90
820;DHT22;392;48.838;2.322;2024-03-25T14:54:40;16.30;2.10
820;DHT22;392;48.838;2.322;2024-03-25T14:57:06;16.40;2.30
820;DHT22;392;48.838;2.322;2024-03-25T14:59:33;16.50;2.30
820;DHT22;392;48.838;2.322;2024-03-25T15:02:00;16.50;2.30
820;DHT22;392;48.838;2.322;2024-03-25T15:04:27;16.40;2.50
820;DHT22;392;48.838;2.322;2024-03-25T15:06:55;16.40;2.90
820;DHT22;392;48.838;2.322;2024-03-25T15:09:22;16.40;3.20
820;DHT22;392;48.838;2.322;2024-03-25T15:11:49;16.30;2.80
820;DHT22;392;48.838;2.322;2024-03-25T15:14:15;16.20;2.70
820;DHT22;392;48.838;2.322;2024-03-25T15:16:43;16.20;3.00
820;DHT22;392;48.838;2.322;2024-03-25T15:19:09;16.20;2.50
820;DHT22;392;48.838;2.322;2024-03-25T15:21:36;16.20;2.80
820;DHT22;392;48.838;2.322;2024-03-25T15:24:04;16.10;2.80
820;DHT22;392;48.838;2.322;2024-03-25T15:26:31;16.00;3.10
820;DHT22;392;48.838;2.322;2024-03-25T15:28:58;16.00;3.20
820;DHT22;392;48.838;2.322;2024-03-25T15:31:24;16.00;3.10
820;DHT22;392;48.838;2.322;2024-03-25T15:33:50;15.80;3.10
820;DHT22;392;48.838;2.322;2024-03-25T15:36:17;15.80;3.40
820;DHT22;392;48.838;2.322;2024-03-25T15:38:43;15.80;3.50
820;DHT22;392;48.838;2.322;2024-03-25T15:41:11;15.90;3.90
820;DHT22;392;48.838;2.322;2024-03-25T15:43:37;15.90;3.90
820;DHT22;392;48.838;2.322;2024-03-25T15:46:04;16.00;4.00
820;DHT22;392;48.838;2.322;2024-03-25T15:48:30;15.90;3.90
820;DHT22;392;48.838;2.322;2024-03-25T15:50:56;15.80;4.20
820;DHT22;392;48.838;2.322;2024-03-25T15:53:23;15.80;4.50
820;DHT22;392;48.838;2.322;2024-03-25T15:55:49;15.90;4.60
820;DHT22;392;48.838;2.322;2024-03-25T15:58:17;15.90;4.60
820;DHT22;392;48.838;2.322;2024-03-25T16:00:44;16.00;4.60
820;DHT22;392;48.838;2.322;2024-03-25T16:03:10;16.10;4.50
820;DHT22;392;48.838;2.322;2024-03-25T16:05:37;16.10;4.60
820;DHT22;392;48.838;2.322;2024-03-25T16:08:03;16.00;4.00
820;DHT22;392;48.838;2.322;2024-03-25T16:10:33;16.00;4.00
820;DHT22;392;48.838;2.322;2024-03-25T16:13:01;15.80;3.80
820;DHT22;392;48.838;2.322;2024-03-25T16:15:30;15.70;4.30
820;DHT22;392;48.838;2.322;2024-03-25T16:17:57;15.60;4.70
820;DHT22;392;48.838;2.322;2024-03-25T16:20:23;15.60;5.00
820;DHT22;392;48.838;2.322;2024-03-25T16:22:55;15.50;5.20
820;DHT22;392;48.838;2.322;2024-03-25T16:25:21;15.50;5.40
820;DHT22;392;48.838;2.322;2024-03-25T16:27:48;15.40;5.70
820;DHT22;392;48.838;2.322;2024-03-25T16:30:15;15.40;6.20
820;DHT22;392;48.838;2.322;2024-03-25T16:32:43;15.40;6.70
820;DHT22;392;48.838;2.322;2024-03-25T16:35:09;15.20;6.90
820;DHT22;392;48.838;2.322;2024-03-25T16:37:36;15.10;7.10
820;DHT22;392;48.838;2.322;2024-03-25T16:40:03;15.10;7.60
820;DHT22;392;48.838;2.322;2024-03-25T16:42:29;15.10;7.80
820;DHT22;392;48.838;2.322;2024-03-25T16:44:56;15.10;7.80
820;DHT22;392;48.838;2.322;2024-03-25T16:47:22;15.10;7.80
820;DHT22;392;48.838;2.322;2024-03-25T16:49:50;15.00;7.70